sensor_id;sensor_type;location;lat;lon;timestamp;P1;durP1;ratioP1;P2;durP2;ratioP2
46355;SDS011;32066;49.474;11.106;2023-09-18T00:01:07;9.55;;;5.80;;
46355;SDS011;32066;49.474;11.106;2023-09-18T00:03:38;7.25;;;5.80;;
46355;SDS011;32066;49.474;11.106;2023-09-18T00:06:07;7.55;;;5.55;;
46355;SDS011;32066;49.474;11.106;2023-09-18T00:08:37;9.27;;;5.95;;
46355;SDS011;32066;49.474;11.106;2023-09-18T00:11:07;7.30;;;5.97;;
46355;SDS011;32066;49.474;11.106;2023-09-18T00:13:37;8.43;;;5.75;;
46355;SDS011;32066;49.474;11.106;2023-09-18T00:16:05;7.13;;;5.85;;
46355;SDS011;32066;49.474;11.106;2023-09-18T00:18:34;9.20;;;5.25;;
46355;SDS011;32066;49.474;11.106;2023-09-18T00:21:05;7.30;;;5.80;;
46355;SDS011;32066;49.474;11.106;2023-09-18T00:23:35;6.65;;;5.50;;
46355;SDS011;32066;49.474;11.106;2023-09-18T00:26:04;7.28;;;5.28;;
46355;SDS011;32066;49.474;11.106;2023-09-18T00:28:33;8.38;;;5.43;;
46355;SDS011;32066;49.474;11.106;2023-09-18T00:31:01;7.50;;;5.38;;
46355;SDS011;32066;49.474;11.106;2023-09-18T00:33:30;7.53;;;5.43;;
46355;SDS011;32066;49.474;11.106;2023-09-18T00:35:59;8.10;;;5.68;;
46355;SDS011;32066;49.474;11.106;2023-09-18T00:38:30;8.02;;;5.45;;
46355;SDS011;32066;49.474;11.106;2023-09-18T00:40:59;9.38;;;5.55;;
46355;SDS011;32066;49.474;11.106;2023-09-18T00:43:28;6.80;;;5.00;;
46355;SDS011;32066;49.474;11.106;2023-09-18T00:45:57;6.40;;;5.15;;
46355;SDS011;32066;49.474;11.106;2023-09-18T00:48:26;8.25;;;5.70;;
46355;SDS011;32066;49.474;11.106;2023-09-18T00:50:55;6.40;;;5.20;;
46355;SDS011;32066;49.474;11.106;2023-09-18T00:53:24;8.77;;;5.55;;
46355;SDS011;32066;49.474;11.106;2023-09-18T00:55:57;8.45;;;5.80;;
46355;SDS011;32066;49.474;11.106;2023-09-18T00:58:28;7.13;;;4.82;;
46355;SDS011;32066;49.474;11.106;2023-09-18T01:00:57;7.60;;;5.32;;
46355;SDS011;32066;49.474;11.106;2023-09-18T01:03:26;7.65;;;5.43;;
46355;SDS011;32066;49.474;11.106;2023-09-18T01:05:55;7.30;;;5.00;;
46355;SDS011;32066;49.474;11.106;2023-09-18T01:08:24;8.82;;;4.78;;
46355;SDS011;32066;49.474;11.106;2023-09-18T01:10:53;8.07;;;5.25;;
46355;SDS011;32066;49.474;11.106;2023-09-18T01:13:33;7.10;;;5.20;;
46355;SDS011;32066;49.474;11.106;2023-09-18T01:16:06;7.53;;;4.93;;
46355;SDS011;32066;49.474;11.106;2023-09-18T01:18:38;7.00;;;5.30;;
46355;SDS011;32066;49.474;11.106;2023-09-18T01:21:18;6.68;;;4.85;;
46355;SDS011;32066;49.474;11.106;2023-09-18T01:23:50;7.60;;;4.93;;
46355;SDS011;32066;49.474;11.106;2023-09-18T01:26:19;7.43;;;5.18;;
46355;SDS011;32066;49.474;11.106;2023-09-18T01:28:48;8.30;;;5.28;;
46355;SDS011;32066;49.474;11.106;2023-09-18T01:31:16;7.07;;;4.60;;
46355;SDS011;32066;49.474;11.106;2023-09-18T01:33:45;7.13;;;5.18;;
46355;SDS011;32066;49.474;11.106;2023-09-18T01:36:16;7.32;;;5.18;;
46355;SDS011;32066;49.474;11.106;2023-09-18T01:38:46;6.50;;;4.35;;
46355;SDS011;32066;49.474;11.106;2023-09-18T01:41:18;6.68;;;4.95;;
46355;SDS011;32066;49.474;11.106;2023-09-18T01:43:48;7.90;;;4.97;;
46355;SDS011;32066;49.474;11.106;2023-09-18T01:46:17;8.35;;;4.82;;
46355;SDS011;32066;49.474;11.106;2023-09-18T01:48:46;7.43;;;4.80;;
46355;SDS011;32066;49.474;11.106;2023-09-18T01:51:15;9.23;;;5.05;;
46355;SDS011;32066;49.474;11.106;2023-09-18T01:53:43;7.00;;;4.93;;
46355;SDS011;32066;49.474;11.106;2023-09-18T01:56:15;7.93;;;5.38;;
46355;SDS011;32066;49.474;11.106;2023-09-18T01:58:43;6.85;;;4.90;;
46355;SDS011;32066;49.474;11.106;2023-09-18T02:01:12;7.38;;;5.40;;
46355;SDS011;32066;49.474;11.106;2023-09-18T02:03:40;6.93;;;5.28;;
46355;SDS011;32066;49.474;11.106;2023-09-18T02:06:11;6.40;;;4.88;;
46355;SDS011;32066;49.474;11.106;2023-09-18T02:08:39;8.18;;;4.82;;
46355;SDS011;32066;49.474;11.106;2023-09-18T02:11:08;6.72;;;4.93;;
46355;SDS011;32066;49.474;11.106;2023-09-18T02:13:39;8.18;;;5.28;;
46355;SDS011;32066;49.474;11.106;2023-09-18T02:16:08;9.68;;;5.35;;
46355;SDS011;32066;49.474;11.106;2023-09-18T02:18:36;7.35;;;5.13;;
46355;SDS011;32066;49.474;11.106;2023-09-18T02:21:18;7.33;;;4.53;;
46355;SDS011;32066;49.474;11.106;2023-09-18T02:23:48;6.82;;;5.47;;
46355;SDS011;32066;49.474;11.106;2023-09-18T02:26:18;7.97;;;5.18;;
46355;SDS011;32066;49.474;11.106;2023-09-18T02:28:51;8.70;;;5.68;;
46355;SDS011;32066;49.474;11.106;2023-09-18T02:31:20;6.00;;;4.82;;
46355;SDS011;32066;49.474;11.106;2023-09-18T02:33:49;6.53;;;5.05;;
46355;SDS011;32066;49.474;11.106;2023-09-18T02:36:17;9.40;;;6.03;;
46355;SDS011;32066;49.474;11.106;2023-09-18T02:38:48;10.07;;;5.43;;
46355;SDS011;32066;49.474;11.106;2023-09-18T02:41:17;8.18;;;5.78;;
46355;SDS011;32066;49.474;11.106;2023-09-18T02:43:45;7.57;;;5.47;;
46355;SDS011;32066;49.474;11.106;2023-09-18T02:46:17;7.57;;;5.35;;
46355;SDS011;32066;49.474;11.106;2023-09-18T02:48:46;7.20;;;5.50;;
46355;SDS011;32066;49.474;11.106;2023-09-18T02:51:15;8.57;;;5.47;;
46355;SDS011;32066;49.474;11.106;2023-09-18T02:53:44;7.07;;;5.70;;
46355;SDS011;32066;49.474;11.106;2023-09-18T02:56:13;9.57;;;5.45;;
46355;SDS011;32066;49.474;11.106;2023-09-18T02:58:41;7.97;;;5.43;;
46355;SDS011;32066;49.474;11.106;2023-09-18T03:01:13;8.60;;;5.55;;
46355;SDS011;32066;49.474;11.106;2023-09-18T03:03:41;8.68;;;5.63;;
46355;SDS011;32066;49.474;11.106;2023-09-18T03:06:10;8.23;;;5.97;;
46355;SDS011;32066;49.474;11.106;2023-09-18T03:08:39;10.65;;;6.18;;
46355;SDS011;32066;49.474;11.106;2023-09-18T03:11:10;10.90;;;6.65;;
46355;SDS011;32066;49.474;11.106;2023-09-18T03:13:42;10.20;;;6.30;;
46355;SDS011;32066;49.474;11.106;2023-09-18T03:16:15;9.05;;;5.95;;
46355;SDS011;32066;49.474;11.106;2023-09-18T03:18:45;10.38;;;5.85;;
46355;SDS011;32066;49.474;11.106;2023-09-18T03:21:14;8.68;;;6.00;;
46355;SDS011;32066;49.474;11.106;2023-09-18T03:23:42;11.05;;;5.97;;
46355;SDS011;32066;49.474;11.106;2023-09-18T03:26:11;8.27;;;6.47;;
46355;SDS011;32066;49.474;11.106;2023-09-18T03:28:40;10.60;;;5.93;;
46355;SDS011;32066;49.474;11.106;2023-09-18T03:31:09;9.75;;;6.28;;
46355;SDS011;32066;49.474;11.106;2023-09-18T03:33:41;11.25;;;6.32;;
46355;SDS011;32066;49.474;11.106;2023-09-18T03:36:10;10.85;;;6.03;;
46355;SDS011;32066;49.474;11.106;2023-09-18T03:38:40;8.32;;;6.22;;
46355;SDS011;32066;49.474;11.106;2023-09-18T03:41:08;10.80;;;6.50;;
46355;SDS011;32066;49.474;11.106;2023-09-18T03:43:37;9.05;;;5.97;;
46355;SDS011;32066;49.474;11.106;2023-09-18T03:46:06;10.88;;;6.00;;
46355;SDS011;32066;49.474;11.106;2023-09-18T03:48:45;7.85;;;6.15;;
46355;SDS011;32066;49.474;11.106;2023-09-18T03:51:13;9.68;;;6.20;;
46355;SDS011;32066;49.474;11.106;2023-09-18T03:53:43;8.52;;;6.47;;
46355;SDS011;32066;49.474;11.106;2023-09-18T03:56:13;14.15;;;6.78;;
46355;SDS011;32066;49.474;11.106;2023-09-18T03:58:41;9.68;;;6.35;;
46355;SDS011;32066;49.474;11.106;2023-09-18T04:01:12;10.32;;;5.72;;
46355;SDS011;32066;49.474;11.106;2023-09-18T04:03:40;10.07;;;6.10;;
46355;SDS011;32066;49.474;11.106;2023-09-18T04:06:11;8.25;;;6.20;;
46355;SDS011;32066;49.474;11.106;2023-09-18T04:08:40;9.68;;;6.80;;
46355;SDS011;32066;49.474;11.106;2023-09-18T04:11:09;10.20;;;5.97;;
46355;SDS011;32066;49.474;11.106;2023-09-18T04:13:38;8.25;;;5.88;;
46355;SDS011;32066;49.474;11.106;2023-09-18T04:16:07;11.50;;;6.13;;
46355;SDS011;32066;49.474;11.106;2023-09-18T04:18:39;9.98;;;6.22;;
46355;SDS011;32066;49.474;11.106;2023-09-18T04:21:08;9.57;;;6.43;;
46355;SDS011;32066;49.474;11.106;2023-09-18T04:23:40;12.30;;;6.88;;
46355;SDS011;32066;49.474;11.106;2023-09-18T04:26:08;7.95;;;5.60;;
46355;SDS011;32066;49.474;11.106;2023-09-18T04:28:39;10.18;;;6.13;;
46355;SDS011;32066;49.474;11.106;2023-09-18T04:31:08;8.85;;;6.25;;
46355;SDS011;32066;49.474;11.106;2023-09-18T04:33:37;9.38;;;6.63;;
46355;SDS011;32066;49.474;11.106;2023-09-18T04:36:06;9.45;;;6.38;;
46355;SDS011;32066;49.474;11.106;2023-09-18T04:38:39;8.93;;;6.20;;
46355;SDS011;32066;49.474;11.106;2023-09-18T04:41:08;10.75;;;6.80;;
46355;SDS011;32066;49.474;11.106;2023-09-18T04:43:37;10.38;;;6.78;;
46355;SDS011;32066;49.474;11.106;2023-09-18T04:46:06;9.75;;;6.43;;
46355;SDS011;32066;49.474;11.106;2023-09-18T04:48:34;9.13;;;5.63;;
46355;SDS011;32066;49.474;11.106;2023-09-18T04:51:04;12.20;;;6.60;;
46355;SDS011;32066;49.474;11.106;2023-09-18T04:53:33;9.00;;;6.43;;
46355;SDS011;32066;49.474;11.106;2023-09-18T04:56:05;8.50;;;6.50;;
46355;SDS011;32066;49.474;11.106;2023-09-18T04:58:35;10.63;;;6.65;;
46355;SDS011;32066;49.474;11.106;2023-09-18T05:01:04;12.95;;;6.32;;
46355;SDS011;32066;49.474;11.106;2023-09-18T05:03:36;9.07;;;6.10;;
46355;SDS011;32066;49.474;11.106;2023-09-18T05:06:05;8.73;;;6.40;;
46355;SDS011;32066;49.474;11.106;2023-09-18T05:08:34;11.57;;;6.53;;
46355;SDS011;32066;49.474;11.106;2023-09-18T05:11:07;9.43;;;6.03;;
46355;SDS011;32066;49.474;11.106;2023-09-18T05:13:36;15.32;;;9.05;;
46355;SDS011;32066;49.474;11.106;2023-09-18T05:16:05;11.32;;;6.60;;
46355;SDS011;32066;49.474;11.106;2023-09-18T05:18:33;10.38;;;6.82;;
46355;SDS011;32066;49.474;11.106;2023-09-18T05:21:03;11.55;;;6.78;;
46355;SDS011;32066;49.474;11.106;2023-09-18T05:23:32;10.27;;;7.05;;
46355;SDS011;32066;49.474;11.106;2023-09-18T05:26:00;10.27;;;6.40;;
46355;SDS011;32066;49.474;11.106;2023-09-18T05:28:32;8.82;;;6.60;;
46355;SDS011;32066;49.474;11.106;2023-09-18T05:31:01;12.32;;;7.32;;
46355;SDS011;32066;49.474;11.106;2023-09-18T05:33:30;9.63;;;5.97;;
46355;SDS011;32066;49.474;11.106;2023-09-18T05:35:58;11.32;;;6.55;;
46355;SDS011;32066;49.474;11.106;2023-09-18T05:38:27;15.13;;;7.80;;
46355;SDS011;32066;49.474;11.106;2023-09-18T05:40:56;10.73;;;6.88;;
46355;SDS011;32066;49.474;11.106;2023-09-18T05:43:25;9.23;;;6.88;;
46355;SDS011;32066;49.474;11.106;2023-09-18T05:45:56;7.93;;;6.35;;
46355;SDS011;32066;49.474;11.106;2023-09-18T05:48:24;8.88;;;7.22;;
46355;SDS011;32066;49.474;11.106;2023-09-18T05:50:53;9.80;;;6.13;;
46355;SDS011;32066;49.474;11.106;2023-09-18T05:53:22;13.13;;;6.82;;
46355;SDS011;32066;49.474;11.106;2023-09-18T05:55:50;10.80;;;6.70;;
46355;SDS011;32066;49.474;11.106;2023-09-18T05:58:19;17.35;;;6.57;;
46355;SDS011;32066;49.474;11.106;2023-09-18T06:00:50;20.15;;;6.90;;
46355;SDS011;32066;49.474;11.106;2023-09-18T06:03:21;12.50;;;7.07;;
46355;SDS011;32066;49.474;11.106;2023-09-18T06:05:50;12.25;;;6.68;;
46355;SDS011;32066;49.474;11.106;2023-09-18T06:08:19;10.63;;;6.70;;
46355;SDS011;32066;49.474;11.106;2023-09-18T06:10:47;12.50;;;6.80;;
46355;SDS011;32066;49.474;11.106;2023-09-18T06:13:16;11.13;;;7.25;;
46355;SDS011;32066;49.474;11.106;2023-09-18T06:15:44;10.07;;;7.38;;
46355;SDS011;32066;49.474;11.106;2023-09-18T06:18:13;12.57;;;7.10;;
46355;SDS011;32066;49.474;11.106;2023-09-18T06:20:45;10.40;;;6.95;;
46355;SDS011;32066;49.474;11.106;2023-09-18T06:23:13;11.35;;;6.55;;
46355;SDS011;32066;49.474;11.106;2023-09-18T06:25:42;10.85;;;6.63;;
46355;SDS011;32066;49.474;11.106;2023-09-18T06:28:11;11.65;;;6.53;;
46355;SDS011;32066;49.474;11.106;2023-09-18T06:30:38;13.88;;;6.55;;
46355;SDS011;32066;49.474;11.106;2023-09-18T06:33:06;9.40;;;7.00;;
46355;SDS011;32066;49.474;11.106;2023-09-18T06:35:37;13.52;;;6.82;;
46355;SDS011;32066;49.474;11.106;2023-09-18T06:38:09;13.57;;;7.22;;
46355;SDS011;32066;49.474;11.106;2023-09-18T06:40:40;12.10;;;7.13;;
46355;SDS011;32066;49.474;11.106;2023-09-18T06:43:09;15.35;;;7.45;;
46355;SDS011;32066;49.474;11.106;2023-09-18T06:45:37;9.15;;;6.50;;
46355;SDS011;32066;49.474;11.106;2023-09-18T06:48:06;9.98;;;6.57;;
46355;SDS011;32066;49.474;11.106;2023-09-18T06:50:34;9.77;;;6.45;;
46355;SDS011;32066;49.474;11.106;2023-09-18T06:53:04;11.25;;;6.65;;
46355;SDS011;32066;49.474;11.106;2023-09-18T06:55:36;11.65;;;7.18;;
46355;SDS011;32066;49.474;11.106;2023-09-18T06:58:04;13.82;;;7.00;;
46355;SDS011;32066;49.474;11.106;2023-09-18T07:00:33;10.00;;;6.55;;
46355;SDS011;32066;49.474;11.106;2023-09-18T07:03:02;12.57;;;7.20;;
46355;SDS011;32066;49.474;11.106;2023-09-18T07:05:31;7.85;;;6.25;;
46355;SDS011;32066;49.474;11.106;2023-09-18T07:08:00;9.70;;;6.80;;
46355;SDS011;32066;49.474;11.106;2023-09-18T07:10:30;8.50;;;6.47;;
46355;SDS011;32066;49.474;11.106;2023-09-18T07:13:01;10.98;;;6.65;;
46355;SDS011;32066;49.474;11.106;2023-09-18T07:15:30;11.07;;;6.78;;
46355;SDS011;32066;49.474;11.106;2023-09-18T07:17:59;11.30;;;6.65;;
46355;SDS011;32066;49.474;11.106;2023-09-18T07:20:27;12.77;;;6.30;;
46355;SDS011;32066;49.474;11.106;2023-09-18T07:22:57;8.77;;;5.72;;
46355;SDS011;32066;49.474;11.106;2023-09-18T07:25:26;7.00;;;5.72;;
46355;SDS011;32066;49.474;11.106;2023-09-18T07:27:54;9.15;;;6.40;;
46355;SDS011;32066;49.474;11.106;2023-09-18T07:30:25;7.25;;;5.75;;
46355;SDS011;32066;49.474;11.106;2023-09-18T07:32:55;7.90;;;5.90;;
46355;SDS011;32066;49.474;11.106;2023-09-18T07:35:24;8.15;;;5.78;;
46355;SDS011;32066;49.474;11.106;2023-09-18T07:37:52;8.48;;;6.03;;
46355;SDS011;32066;49.474;11.106;2023-09-18T07:40:22;10.27;;;6.32;;
46355;SDS011;32066;49.474;11.106;2023-09-18T07:42:51;9.77;;;5.90;;
46355;SDS011;32066;49.474;11.106;2023-09-18T07:45:19;8.93;;;6.43;;
46355;SDS011;32066;49.474;11.106;2023-09-18T07:47:51;9.15;;;6.55;;
46355;SDS011;32066;49.474;11.106;2023-09-18T07:50:19;10.45;;;6.45;;
46355;SDS011;32066;49.474;11.106;2023-09-18T07:52:48;10.02;;;5.63;;
46355;SDS011;32066;49.474;11.106;2023-09-18T07:55:17;8.07;;;5.97;;
46355;SDS011;32066;49.474;11.106;2023-09-18T07:57:45;8.38;;;5.60;;
46355;SDS011;32066;49.474;11.106;2023-09-18T08:00:14;7.53;;;5.55;;
46355;SDS011;32066;49.474;11.106;2023-09-18T08:02:43;13.20;;;6.43;;
46355;SDS011;32066;49.474;11.106;2023-09-18T08:05:16;9.10;;;5.80;;
46355;SDS011;32066;49.474;11.106;2023-09-18T08:07:45;9.30;;;5.78;;
46355;SDS011;32066;49.474;11.106;2023-09-18T08:10:16;9.98;;;6.00;;
46355;SDS011;32066;49.474;11.106;2023-09-18T08:12:45;9.52;;;5.97;;
46355;SDS011;32066;49.474;11.106;2023-09-18T08:15:15;6.78;;;5.38;;
46355;SDS011;32066;49.474;11.106;2023-09-18T08:17:43;11.73;;;5.43;;
46355;SDS011;32066;49.474;11.106;2023-09-18T08:20:13;11.65;;;5.30;;
46355;SDS011;32066;49.474;11.106;2023-09-18T08:22:45;12.07;;;5.00;;
46355;SDS011;32066;49.474;11.106;2023-09-18T08:25:14;10.50;;;5.10;;
46355;SDS011;32066;49.474;11.106;2023-09-18T08:27:43;13.52;;;5.93;;
46355;SDS011;32066;49.474;11.106;2023-09-18T08:30:13;9.90;;;4.93;;
46355;SDS011;32066;49.474;11.106;2023-09-18T08:32:46;12.48;;;5.57;;
46355;SDS011;32066;49.474;11.106;2023-09-18T08:35:17;11.55;;;5.18;;
46355;SDS011;32066;49.474;11.106;2023-09-18T08:37:47;10.68;;;5.50;;
46355;SDS011;32066;49.474;11.106;2023-09-18T08:40:15;10.48;;;4.90;;
46355;SDS011;32066;49.474;11.106;2023-09-18T08:42:45;10.50;;;5.07;;
46355;SDS011;32066;49.474;11.106;2023-09-18T08:45:15;12.10;;;4.50;;
46355;SDS011;32066;49.474;11.106;2023-09-18T08:47:49;12.55;;;5.13;;
46355;SDS011;32066;49.474;11.106;2023-09-18T08:50:22;8.00;;;5.05;;
46355;SDS011;32066;49.474;11.106;2023-09-18T08:52:51;12.60;;;4.97;;
46355;SDS011;32066;49.474;11.106;2023-09-18T08:55:20;10.93;;;4.57;;
46355;SDS011;32066;49.474;11.106;2023-09-18T08:57:49;14.80;;;5.13;;
46355;SDS011;32066;49.474;11.106;2023-09-18T09:00:19;14.65;;;4.75;;
46355;SDS011;32066;49.474;11.106;2023-09-18T09:02:48;13.15;;;5.43;;
46355;SDS011;32066;49.474;11.106;2023-09-18T09:05:21;13.02;;;5.68;;
46355;SDS011;32066;49.474;11.106;2023-09-18T09:07:50;16.25;;;5.30;;
46355;SDS011;32066;49.474;11.106;2023-09-18T09:10:19;14.68;;;4.90;;
46355;SDS011;32066;49.474;11.106;2023-09-18T09:12:53;13.30;;;5.40;;
46355;SDS011;32066;49.474;11.106;2023-09-18T09:15:24;18.23;;;5.57;;
46355;SDS011;32066;49.474;11.106;2023-09-18T09:18:02;13.80;;;4.97;;
46355;SDS011;32066;49.474;11.106;2023-09-18T09:20:35;11.98;;;4.70;;
46355;SDS011;32066;49.474;11.106;2023-09-18T09:23:05;14.50;;;5.28;;
46355;SDS011;32066;49.474;11.106;2023-09-18T09:25:36;11.77;;;4.32;;
46355;SDS011;32066;49.474;11.106;2023-09-18T09:28:05;16.98;;;4.60;;
46355;SDS011;32066;49.474;11.106;2023-09-18T09:30:35;14.80;;;4.65;;
46355;SDS011;32066;49.474;11.106;2023-09-18T09:33:05;13.20;;;4.07;;
46355;SDS011;32066;49.474;11.106;2023-09-18T09:35:37;9.30;;;3.88;;
46355;SDS011;32066;49.474;11.106;2023-09-18T09:38:09;11.00;;;4.45;;
46355;SDS011;32066;49.474;11.106;2023-09-18T09:40:41;11.02;;;3.67;;
46355;SDS011;32066;49.474;11.106;2023-09-18T09:43:11;12.10;;;3.72;;
46355;SDS011;32066;49.474;11.106;2023-09-18T09:45:41;12.45;;;3.60;;
46355;SDS011;32066;49.474;11.106;2023-09-18T09:48:10;11.45;;;4.32;;
46355;SDS011;32066;49.474;11.106;2023-09-18T09:50:46;13.23;;;3.42;;
46355;SDS011;32066;49.474;11.106;2023-09-18T09:53:16;12.52;;;3.97;;
46355;SDS011;32066;49.474;11.106;2023-09-18T09:55:44;12.60;;;3.47;;
46355;SDS011;32066;49.474;11.106;2023-09-18T09:58:13;10.98;;;3.47;;
46355;SDS011;32066;49.474;11.106;2023-09-18T10:00:43;10.23;;;3.42;;
46355;SDS011;32066;49.474;11.106;2023-09-18T10:03:15;10.95;;;3.55;;
46355;SDS011;32066;49.474;11.106;2023-09-18T10:05:50;9.85;;;3.70;;
46355;SDS011;32066;49.474;11.106;2023-09-18T10:08:21;8.02;;;3.50;;
46355;SDS011;32066;49.474;11.106;2023-09-18T10:10:52;9.52;;;3.47;;
46355;SDS011;32066;49.474;11.106;2023-09-18T10:13:23;9.73;;;3.10;;
46355;SDS011;32066;49.474;11.106;2023-09-18T10:15:56;12.55;;;3.08;;
46355;SDS011;32066;49.474;11.106;2023-09-18T10:18:28;8.38;;;3.00;;
46355;SDS011;32066;49.474;11.106;2023-09-18T10:21:19;10.80;;;2.88;;
46355;SDS011;32066;49.474;11.106;2023-09-18T10:23:58;12.15;;;3.30;;
46355;SDS011;32066;49.474;11.106;2023-09-18T10:26:32;7.53;;;2.65;;
46355;SDS011;32066;49.474;11.106;2023-09-18T10:29:07;12.98;;;2.90;;
46355;SDS011;32066;49.474;11.106;2023-09-18T10:31:39;8.05;;;2.47;;
46355;SDS011;32066;49.474;11.106;2023-09-18T10:34:09;9.60;;;2.58;;
46355;SDS011;32066;49.474;11.106;2023-09-18T10:36:43;7.40;;;2.95;;
46355;SDS011;32066;49.474;11.106;2023-09-18T10:39:15;8.30;;;2.67;;
46355;SDS011;32066;49.474;11.106;2023-09-18T10:41:49;9.23;;;2.58;;
46355;SDS011;32066;49.474;11.106;2023-09-18T10:44:20;9.05;;;2.28;;
46355;SDS011;32066;49.474;11.106;2023-09-18T10:46:49;8.75;;;2.63;;
46355;SDS011;32066;49.474;11.106;2023-09-18T10:49:20;11.00;;;2.60;;
46355;SDS011;32066;49.474;11.106;2023-09-18T10:51:52;11.63;;;3.38;;
46355;SDS011;32066;49.474;11.106;2023-09-18T10:54:24;13.27;;;2.95;;
46355;SDS011;32066;49.474;11.106;2023-09-18T10:56:54;12.23;;;2.63;;
46355;SDS011;32066;49.474;11.106;2023-09-18T10:59:24;12.30;;;2.90;;
46355;SDS011;32066;49.474;11.106;2023-09-18T11:01:53;14.80;;;3.33;;
46355;SDS011;32066;49.474;11.106;2023-09-18T11:04:22;7.97;;;3.28;;
46355;SDS011;32066;49.474;11.106;2023-09-18T11:07:03;9.00;;;2.60;;
46355;SDS011;32066;49.474;11.106;2023-09-18T11:09:42;9.77;;;2.58;;
46355;SDS011;32066;49.474;11.106;2023-09-18T11:12:14;8.27;;;2.08;;
46355;SDS011;32066;49.474;11.106;2023-09-18T11:14:45;9.80;;;2.55;;
46355;SDS011;32066;49.474;11.106;2023-09-18T11:20:04;10.90;;;2.63;;
46355;SDS011;32066;49.474;11.106;2023-09-18T11:22:37;6.60;;;2.38;;
46355;SDS011;32066;49.474;11.106;2023-09-18T11:28:07;9.00;;;2.58;;
46355;SDS011;32066;49.474;11.106;2023-09-18T11:30:48;7.07;;;2.05;;
46355;SDS011;32066;49.474;11.106;2023-09-18T11:33:29;7.15;;;2.20;;
46355;SDS011;32066;49.474;11.106;2023-09-18T11:36:01;8.20;;;2.20;;
46355;SDS011;32066;49.474;11.106;2023-09-18T11:38:34;7.15;;;2.08;;
46355;SDS011;32066;49.474;11.106;2023-09-18T11:41:28;6.78;;;1.90;;
46355;SDS011;32066;49.474;11.106;2023-09-18T11:46:56;6.10;;;1.40;;
46355;SDS011;32066;49.474;11.106;2023-09-18T11:49:26;8.52;;;2.00;;
46355;SDS011;32066;49.474;11.106;2023-09-18T11:51:58;5.50;;;1.70;;
46355;SDS011;32066;49.474;11.106;2023-09-18T11:54:31;8.05;;;1.83;;
46355;SDS011;32066;49.474;11.106;2023-09-18T11:57:02;6.43;;;1.40;;
46355;SDS011;32066;49.474;11.106;2023-09-18T11:59:33;7.47;;;1.65;;
46355;SDS011;32066;49.474;11.106;2023-09-18T12:02:03;5.57;;;1.75;;
46355;SDS011;32066;49.474;11.106;2023-09-18T12:04:33;5.13;;;1.65;;
46355;SDS011;32066;49.474;11.106;2023-09-18T12:07:04;5.95;;;1.40;;
46355;SDS011;32066;49.474;11.106;2023-09-18T12:09:36;6.28;;;1.67;;
46355;SDS011;32066;49.474;11.106;2023-09-18T12:12:06;5.22;;;1.38;;
46355;SDS011;32066;49.474;11.106;2023-09-18T12:14:35;6.22;;;1.40;;
46355;SDS011;32066;49.474;11.106;2023-09-18T12:17:07;6.60;;;1.80;;
46355;SDS011;32066;49.474;11.106;2023-09-18T12:19:35;8.60;;;2.15;;
46355;SDS011;32066;49.474;11.106;2023-09-18T12:22:05;6.90;;;1.40;;
46355;SDS011;32066;49.474;11.106;2023-09-18T12:24:33;6.68;;;1.55;;
46355;SDS011;32066;49.474;11.106;2023-09-18T12:27:05;4.70;;;1.50;;
46355;SDS011;32066;49.474;11.106;2023-09-18T12:29:34;8.30;;;2.15;;
46355;SDS011;32066;49.474;11.106;2023-09-18T12:32:03;7.45;;;1.70;;
46355;SDS011;32066;49.474;11.106;2023-09-18T12:34:40;6.63;;;1.90;;
46355;SDS011;32066;49.474;11.106;2023-09-18T12:37:09;6.80;;;1.73;;
46355;SDS011;32066;49.474;11.106;2023-09-18T12:39:40;6.45;;;1.48;;
46355;SDS011;32066;49.474;11.106;2023-09-18T12:42:11;5.43;;;1.55;;
46355;SDS011;32066;49.474;11.106;2023-09-18T12:44:40;5.88;;;1.65;;
46355;SDS011;32066;49.474;11.106;2023-09-18T12:47:08;7.15;;;1.85;;
46355;SDS011;32066;49.474;11.106;2023-09-18T12:49:37;7.32;;;1.88;;
46355;SDS011;32066;49.474;11.106;2023-09-18T12:52:06;6.22;;;1.70;;
46355;SDS011;32066;49.474;11.106;2023-09-18T12:54:36;6.40;;;1.60;;
46355;SDS011;32066;49.474;11.106;2023-09-18T12:57:06;5.20;;;1.63;;
46355;SDS011;32066;49.474;11.106;2023-09-18T12:59:38;5.15;;;1.63;;
46355;SDS011;32066;49.474;11.106;2023-09-18T13:02:07;7.03;;;2.30;;
46355;SDS011;32066;49.474;11.106;2023-09-18T13:04:36;8.32;;;2.85;;
46355;SDS011;32066;49.474;11.106;2023-09-18T13:07:11;7.93;;;1.88;;
46355;SDS011;32066;49.474;11.106;2023-09-18T13:09:42;5.60;;;1.92;;
46355;SDS011;32066;49.474;11.106;2023-09-18T13:12:11;6.97;;;1.80;;
46355;SDS011;32066;49.474;11.106;2023-09-18T13:17:40;8.02;;;2.08;;
46355;SDS011;32066;49.474;11.106;2023-09-18T13:20:12;8.40;;;1.75;;
46355;SDS011;32066;49.474;11.106;2023-09-18T13:22:47;6.90;;;2.17;;
46355;SDS011;32066;49.474;11.106;2023-09-18T13:25:19;6.85;;;1.90;;
46355;SDS011;32066;49.474;11.106;2023-09-18T13:27:49;6.13;;;2.30;;
46355;SDS011;32066;49.474;11.106;2023-09-18T13:30:21;7.82;;;2.45;;
46355;SDS011;32066;49.474;11.106;2023-09-18T13:32:50;8.35;;;2.17;;
46355;SDS011;32066;49.474;11.106;2023-09-18T13:35:28;6.63;;;1.70;;
46355;SDS011;32066;49.474;11.106;2023-09-18T13:37:57;6.97;;;1.77;;
46355;SDS011;32066;49.474;11.106;2023-09-18T13:40:25;5.57;;;1.52;;
46355;SDS011;32066;49.474;11.106;2023-09-18T13:42:54;6.13;;;1.90;;
46355;SDS011;32066;49.474;11.106;2023-09-18T13:45:25;7.13;;;2.08;;
46355;SDS011;32066;49.474;11.106;2023-09-18T13:47:54;7.53;;;2.08;;
46355;SDS011;32066;49.474;11.106;2023-09-18T13:50:23;7.93;;;2.22;;
46355;SDS011;32066;49.474;11.106;2023-09-18T13:52:51;4.63;;;1.80;;
46355;SDS011;32066;49.474;11.106;2023-09-18T13:55:20;5.55;;;1.48;;
46355;SDS011;32066;49.474;11.106;2023-09-18T13:57:49;4.55;;;1.30;;
46355;SDS011;32066;49.474;11.106;2023-09-18T14:00:18;4.60;;;1.73;;
46355;SDS011;32066;49.474;11.106;2023-09-18T14:02:49;9.00;;;2.28;;
46355;SDS011;32066;49.474;11.106;2023-09-18T14:05:18;5.93;;;1.80;;
46355;SDS011;32066;49.474;11.106;2023-09-18T14:07:46;4.82;;;1.50;;
46355;SDS011;32066;49.474;11.106;2023-09-18T14:10:15;5.18;;;1.35;;
46355;SDS011;32066;49.474;11.106;2023-09-18T14:12:46;6.72;;;1.83;;
46355;SDS011;32066;49.474;11.106;2023-09-18T14:15:15;10.75;;;1.70;;
46355;SDS011;32066;49.474;11.106;2023-09-18T14:17:44;5.22;;;1.50;;
46355;SDS011;32066;49.474;11.106;2023-09-18T14:20:16;6.45;;;1.70;;
46355;SDS011;32066;49.474;11.106;2023-09-18T14:22:46;5.88;;;1.67;;
46355;SDS011;32066;49.474;11.106;2023-09-18T14:25:15;4.97;;;1.70;;
46355;SDS011;32066;49.474;11.106;2023-09-18T14:27:45;4.82;;;1.13;;
46355;SDS011;32066;49.474;11.106;2023-09-18T14:30:13;7.13;;;1.25;;
46355;SDS011;32066;49.474;11.106;2023-09-18T14:32:43;8.95;;;1.92;;
46355;SDS011;32066;49.474;11.106;2023-09-18T14:35:16;6.30;;;1.85;;
46355;SDS011;32066;49.474;11.106;2023-09-18T14:37:44;5.05;;;1.70;;
46355;SDS011;32066;49.474;11.106;2023-09-18T14:40:14;4.63;;;1.55;;
46355;SDS011;32066;49.474;11.106;2023-09-18T14:42:42;5.18;;;1.42;;
46355;SDS011;32066;49.474;11.106;2023-09-18T14:45:11;5.78;;;1.77;;
46355;SDS011;32066;49.474;11.106;2023-09-18T14:47:40;4.45;;;1.58;;
46355;SDS011;32066;49.474;11.106;2023-09-18T14:50:09;5.75;;;1.88;;
46355;SDS011;32066;49.474;11.106;2023-09-18T14:52:40;6.53;;;1.90;;
46355;SDS011;32066;49.474;11.106;2023-09-18T14:55:09;6.75;;;1.52;;
46355;SDS011;32066;49.474;11.106;2023-09-18T14:57:37;6.03;;;1.63;;
46355;SDS011;32066;49.474;11.106;2023-09-18T15:00:06;3.85;;;1.40;;